Terminal Aerodrome Forecast
Issued by NWS Buffalo, NY

Home | Current Version | Previous Version | Text Only | Print | Product List | Glossary On
Versions: 1 2 3 4 5 6 7 8 9 10 11 12 13 14 15 16 17 18 19 20 21 22 23 24
000
FTUS41 KBUF 302100 AAA
TAFROC
TAF AMD
KROC 302102Z 3021/0118 03014KT P6SM BKN010 OVC025
     FM302300 03006KT P6SM BKN025 BKN060
     FM010400 03006KT 2SM BR BKN035 BKN060
     FM011300 05006KT P6SM BKN015
     FM011600 06006KT P6SM BKN250=

USA.gov is the U.S. government's official web portal to all federal, state and local government web resources and services.